sensor_id;sensor_type;location;lat;lon;timestamp;P1;durP1;ratioP1;P2;durP2;ratioP2
42200;SDS011;27869;51.442;7.540;2023-04-24T00:01:27;1.42;;;0.50;;
42200;SDS011;27869;51.442;7.540;2023-04-24T00:03:54;4.78;;;1.10;;
42200;SDS011;27869;51.442;7.540;2023-04-24T00:06:24;0.45;;;0.38;;
42200;SDS011;27869;51.442;7.540;2023-04-24T00:08:58;1.02;;;0.47;;
42200;SDS011;27869;51.442;7.540;2023-04-24T00:11:25;1.95;;;0.75;;
42200;SDS011;27869;51.442;7.540;2023-04-24T00:13:52;2.58;;;0.40;;
42200;SDS011;27869;51.442;7.540;2023-04-24T00:16:21;0.88;;;0.60;;
42200;SDS011;27869;51.442;7.540;2023-04-24T00:18:48;2.38;;;0.57;;
42200;SDS011;27869;51.442;7.540;2023-04-24T00:21:15;4.93;;;1.05;;
42200;SDS011;27869;51.442;7.540;2023-04-24T00:23:42;1.77;;;0.60;;
42200;SDS011;27869;51.442;7.540;2023-04-24T00:26:09;2.47;;;0.70;;
42200;SDS011;27869;51.442;7.540;2023-04-24T00:28:36;2.58;;;0.80;;
42200;SDS011;27869;51.442;7.540;2023-04-24T00:31:03;4.85;;;1.13;;
42200;SDS011;27869;51.442;7.540;2023-04-24T00:33:32;2.65;;;1.00;;
42200;SDS011;27869;51.442;7.540;2023-04-24T00:35:59;3.97;;;1.35;;
42200;SDS011;27869;51.442;7.540;2023-04-24T00:38:25;3.42;;;1.30;;
42200;SDS011;27869;51.442;7.540;2023-04-24T00:40:52;5.78;;;1.73;;
42200;SDS011;27869;51.442;7.540;2023-04-24T00:43:20;6.68;;;1.92;;
42200;SDS011;27869;51.442;7.540;2023-04-24T00:45:47;5.68;;;1.70;;
42200;SDS011;27869;51.442;7.540;2023-04-24T00:48:14;5.68;;;1.98;;
42200;SDS011;27869;51.442;7.540;2023-04-24T00:50:42;8.38;;;2.80;;
42200;SDS011;27869;51.442;7.540;2023-04-24T00:53:09;10.10;;;3.25;;
42200;SDS011;27869;51.442;7.540;2023-04-24T00:55:36;10.77;;;3.60;;
42200;SDS011;27869;51.442;7.540;2023-04-24T00:58:03;9.38;;;3.30;;
42200;SDS011;27869;51.442;7.540;2023-04-24T01:00:31;11.73;;;3.53;;
42200;SDS011;27869;51.442;7.540;2023-04-24T01:03:00;10.75;;;3.60;;
42200;SDS011;27869;51.442;7.540;2023-04-24T01:05:30;9.63;;;2.90;;
42200;SDS011;27869;51.442;7.540;2023-04-24T01:08:00;8.88;;;2.90;;
42200;SDS011;27869;51.442;7.540;2023-04-24T01:10:28;10.48;;;3.35;;
42200;SDS011;27869;51.442;7.540;2023-04-24T01:12:57;10.18;;;2.90;;
42200;SDS011;27869;51.442;7.540;2023-04-24T01:15:24;10.73;;;4.13;;
42200;SDS011;27869;51.442;7.540;2023-04-24T01:17:51;9.85;;;2.58;;
42200;SDS011;27869;51.442;7.540;2023-04-24T01:20:18;8.82;;;2.83;;
42200;SDS011;27869;51.442;7.540;2023-04-24T01:22:47;11.10;;;4.32;;
42200;SDS011;27869;51.442;7.540;2023-04-24T01:25:14;11.70;;;4.45;;
42200;SDS011;27869;51.442;7.540;2023-04-24T01:27:41;11.57;;;4.40;;
42200;SDS011;27869;51.442;7.540;2023-04-24T01:30:08;10.95;;;4.03;;
42200;SDS011;27869;51.442;7.540;2023-04-24T01:32:36;11.70;;;4.30;;
42200;SDS011;27869;51.442;7.540;2023-04-24T01:35:04;12.63;;;4.40;;
42200;SDS011;27869;51.442;7.540;2023-04-24T01:37:32;10.85;;;4.03;;
42200;SDS011;27869;51.442;7.540;2023-04-24T01:42:30;11.68;;;2.92;;
42200;SDS011;27869;51.442;7.540;2023-04-24T01:44:57;9.95;;;3.67;;
42200;SDS011;27869;51.442;7.540;2023-04-24T01:47:25;10.55;;;2.90;;
42200;SDS011;27869;51.442;7.540;2023-04-24T01:49:52;9.48;;;2.90;;
42200;SDS011;27869;51.442;7.540;2023-04-24T01:52:18;8.90;;;2.92;;
42200;SDS011;27869;51.442;7.540;2023-04-24T01:54:45;7.57;;;2.42;;
42200;SDS011;27869;51.442;7.540;2023-04-24T01:57:14;9.25;;;3.10;;
42200;SDS011;27869;51.442;7.540;2023-04-24T01:59:42;10.60;;;3.30;;
42200;SDS011;27869;51.442;7.540;2023-04-24T02:02:10;13.57;;;3.83;;
42200;SDS011;27869;51.442;7.540;2023-04-24T02:04:37;10.85;;;4.03;;
42200;SDS011;27869;51.442;7.540;2023-04-24T02:07:04;8.73;;;2.65;;
42200;SDS011;27869;51.442;7.540;2023-04-24T02:09:31;7.20;;;2.10;;
42200;SDS011;27869;51.442;7.540;2023-04-24T02:11:57;6.97;;;2.17;;
42200;SDS011;27869;51.442;7.540;2023-04-24T02:14:26;6.68;;;1.95;;
42200;SDS011;27869;51.442;7.540;2023-04-24T02:16:53;5.22;;;1.67;;
42200;SDS011;27869;51.442;7.540;2023-04-24T02:19:20;5.25;;;1.55;;
42200;SDS011;27869;51.442;7.540;2023-04-24T02:21:47;6.00;;;1.52;;
42200;SDS011;27869;51.442;7.540;2023-04-24T02:24:14;8.13;;;2.22;;
42200;SDS011;27869;51.442;7.540;2023-04-24T02:26:41;7.85;;;2.33;;
42200;SDS011;27869;51.442;7.540;2023-04-24T02:29:08;7.75;;;2.13;;
42200;SDS011;27869;51.442;7.540;2023-04-24T02:31:36;9.73;;;3.10;;
42200;SDS011;27869;51.442;7.540;2023-04-24T02:34:03;10.43;;;3.40;;
42200;SDS011;27869;51.442;7.540;2023-04-24T02:36:30;10.38;;;3.50;;
42200;SDS011;27869;51.442;7.540;2023-04-24T02:38:57;10.07;;;3.53;;
42200;SDS011;27869;51.442;7.540;2023-04-24T02:41:24;7.45;;;2.42;;
42200;SDS011;27869;51.442;7.540;2023-04-24T02:43:56;7.38;;;2.33;;
42200;SDS011;27869;51.442;7.540;2023-04-24T02:46:23;8.82;;;2.28;;
42200;SDS011;27869;51.442;7.540;2023-04-24T02:48:51;8.23;;;2.58;;
42200;SDS011;27869;51.442;7.540;2023-04-24T02:51:18;7.30;;;2.15;;
42200;SDS011;27869;51.442;7.540;2023-04-24T02:53:45;6.95;;;2.10;;
42200;SDS011;27869;51.442;7.540;2023-04-24T02:56:12;10.45;;;2.83;;
42200;SDS011;27869;51.442;7.540;2023-04-24T02:58:39;9.75;;;2.53;;
42200;SDS011;27869;51.442;7.540;2023-04-24T03:01:06;9.23;;;2.65;;
42200;SDS011;27869;51.442;7.540;2023-04-24T03:03:32;12.35;;;3.85;;
42200;SDS011;27869;51.442;7.540;2023-04-24T03:06:01;11.20;;;4.40;;
42200;SDS011;27869;51.442;7.540;2023-04-24T03:08:28;10.98;;;4.35;;
42200;SDS011;27869;51.442;7.540;2023-04-24T03:10:54;11.07;;;3.83;;
42200;SDS011;27869;51.442;7.540;2023-04-24T03:13:21;12.63;;;4.00;;
42200;SDS011;27869;51.442;7.540;2023-04-24T03:15:48;11.02;;;3.95;;
42200;SDS011;27869;51.442;7.540;2023-04-24T03:18:15;12.15;;;4.20;;
42200;SDS011;27869;51.442;7.540;2023-04-24T03:20:42;12.85;;;4.50;;
42200;SDS011;27869;51.442;7.540;2023-04-24T03:23:12;12.13;;;4.55;;
42200;SDS011;27869;51.442;7.540;2023-04-24T03:25:40;13.65;;;4.97;;
42200;SDS011;27869;51.442;7.540;2023-04-24T03:28:07;11.73;;;4.40;;
42200;SDS011;27869;51.442;7.540;2023-04-24T03:30:34;13.20;;;5.35;;
42200;SDS011;27869;51.442;7.540;2023-04-24T03:33:01;13.55;;;5.32;;
42200;SDS011;27869;51.442;7.540;2023-04-24T03:35:28;13.93;;;5.20;;
42200;SDS011;27869;51.442;7.540;2023-04-24T03:37:55;14.50;;;5.57;;
42200;SDS011;27869;51.442;7.540;2023-04-24T03:40:23;19.00;;;7.07;;
42200;SDS011;27869;51.442;7.540;2023-04-24T03:42:50;25.00;;;11.48;;
42200;SDS011;27869;51.442;7.540;2023-04-24T03:45:17;27.40;;;12.70;;
42200;SDS011;27869;51.442;7.540;2023-04-24T03:47:44;31.52;;;12.77;;
42200;SDS011;27869;51.442;7.540;2023-04-24T03:50:11;34.30;;;12.85;;
42200;SDS011;27869;51.442;7.540;2023-04-24T03:52:38;29.20;;;12.40;;
42200;SDS011;27869;51.442;7.540;2023-04-24T03:55:05;26.55;;;11.05;;
42200;SDS011;27869;51.442;7.540;2023-04-24T03:57:34;24.92;;;10.30;;
42200;SDS011;27869;51.442;7.540;2023-04-24T04:00:01;23.88;;;9.70;;
42200;SDS011;27869;51.442;7.540;2023-04-24T04:02:29;18.27;;;8.00;;
42200;SDS011;27869;51.442;7.540;2023-04-24T04:04:56;18.83;;;7.15;;
42200;SDS011;27869;51.442;7.540;2023-04-24T04:07:23;17.17;;;6.55;;
42200;SDS011;27869;51.442;7.540;2023-04-24T04:09:50;17.55;;;6.35;;
42200;SDS011;27869;51.442;7.540;2023-04-24T04:12:17;19.75;;;7.15;;
42200;SDS011;27869;51.442;7.540;2023-04-24T04:14:45;16.33;;;6.13;;
42200;SDS011;27869;51.442;7.540;2023-04-24T04:17:12;19.30;;;7.95;;
42200;SDS011;27869;51.442;7.540;2023-04-24T04:19:40;16.20;;;5.18;;
42200;SDS011;27869;51.442;7.540;2023-04-24T04:22:07;16.10;;;5.97;;
42200;SDS011;27869;51.442;7.540;2023-04-24T04:24:34;14.10;;;5.50;;
42200;SDS011;27869;51.442;7.540;2023-04-24T04:27:02;13.75;;;5.03;;
42200;SDS011;27869;51.442;7.540;2023-04-24T04:29:29;14.85;;;5.60;;
42200;SDS011;27869;51.442;7.540;2023-04-24T04:31:59;13.73;;;5.45;;
42200;SDS011;27869;51.442;7.540;2023-04-24T04:34:26;14.45;;;5.55;;
42200;SDS011;27869;51.442;7.540;2023-04-24T04:36:53;17.60;;;6.28;;
42200;SDS011;27869;51.442;7.540;2023-04-24T04:39:20;16.00;;;5.82;;
42200;SDS011;27869;51.442;7.540;2023-04-24T04:41:47;15.23;;;5.90;;
42200;SDS011;27869;51.442;7.540;2023-04-24T04:44:15;17.55;;;6.15;;
42200;SDS011;27869;51.442;7.540;2023-04-24T04:46:43;14.88;;;6.47;;
42200;SDS011;27869;51.442;7.540;2023-04-24T04:49:12;14.05;;;5.50;;
42200;SDS011;27869;51.442;7.540;2023-04-24T04:51:41;14.85;;;5.88;;
42200;SDS011;27869;51.442;7.540;2023-04-24T04:54:08;14.32;;;5.28;;
42200;SDS011;27869;51.442;7.540;2023-04-24T04:56:35;14.18;;;6.00;;
42200;SDS011;27869;51.442;7.540;2023-04-24T04:59:02;17.20;;;5.97;;
42200;SDS011;27869;51.442;7.540;2023-04-24T05:01:29;15.88;;;5.68;;
42200;SDS011;27869;51.442;7.540;2023-04-24T05:03:56;20.13;;;6.50;;
42200;SDS011;27869;51.442;7.540;2023-04-24T05:06:24;16.92;;;7.30;;
42200;SDS011;27869;51.442;7.540;2023-04-24T05:08:51;15.15;;;6.13;;
42200;SDS011;27869;51.442;7.540;2023-04-24T05:11:22;14.52;;;6.78;;
42200;SDS011;27869;51.442;7.540;2023-04-24T05:13:48;16.55;;;6.05;;
42200;SDS011;27869;51.442;7.540;2023-04-24T05:16:16;16.58;;;5.93;;
42200;SDS011;27869;51.442;7.540;2023-04-24T05:18:43;13.93;;;5.68;;
42200;SDS011;27869;51.442;7.540;2023-04-24T05:21:10;15.77;;;6.53;;
42200;SDS011;27869;51.442;7.540;2023-04-24T05:23:38;13.10;;;5.68;;
42200;SDS011;27869;51.442;7.540;2023-04-24T05:26:05;14.57;;;5.85;;
42200;SDS011;27869;51.442;7.540;2023-04-24T05:28:32;13.57;;;4.95;;
42200;SDS011;27869;51.442;7.540;2023-04-24T05:31:01;14.23;;;5.15;;
42200;SDS011;27869;51.442;7.540;2023-04-24T05:33:28;14.73;;;5.05;;
42200;SDS011;27869;51.442;7.540;2023-04-24T05:35:55;14.15;;;4.90;;
42200;SDS011;27869;51.442;7.540;2023-04-24T05:38:22;16.33;;;5.68;;
42200;SDS011;27869;51.442;7.540;2023-04-24T05:40:51;16.48;;;6.07;;
42200;SDS011;27869;51.442;7.540;2023-04-24T05:43:17;14.02;;;5.22;;
42200;SDS011;27869;51.442;7.540;2023-04-24T05:45:44;14.00;;;5.22;;
42200;SDS011;27869;51.442;7.540;2023-04-24T05:48:11;13.68;;;5.05;;
42200;SDS011;27869;51.442;7.540;2023-04-24T05:50:38;14.57;;;4.78;;
42200;SDS011;27869;51.442;7.540;2023-04-24T05:53:05;11.73;;;4.40;;
42200;SDS011;27869;51.442;7.540;2023-04-24T05:55:32;13.63;;;4.82;;
42200;SDS011;27869;51.442;7.540;2023-04-24T05:58:02;12.25;;;4.22;;
42200;SDS011;27869;51.442;7.540;2023-04-24T06:00:29;14.48;;;3.95;;
42200;SDS011;27869;51.442;7.540;2023-04-24T06:02:56;12.85;;;4.15;;
42200;SDS011;27869;51.442;7.540;2023-04-24T06:05:23;12.82;;;4.60;;
42200;SDS011;27869;51.442;7.540;2023-04-24T06:07:50;13.93;;;4.55;;
42200;SDS011;27869;51.442;7.540;2023-04-24T06:10:17;14.27;;;5.35;;
42200;SDS011;27869;51.442;7.540;2023-04-24T06:12:44;12.25;;;4.28;;
42200;SDS011;27869;51.442;7.540;2023-04-24T06:15:12;12.40;;;4.45;;
42200;SDS011;27869;51.442;7.540;2023-04-24T06:17:39;14.20;;;4.35;;
42200;SDS011;27869;51.442;7.540;2023-04-24T06:20:06;14.13;;;4.85;;
42200;SDS011;27869;51.442;7.540;2023-04-24T06:22:33;12.13;;;4.15;;
42200;SDS011;27869;51.442;7.540;2023-04-24T06:25:00;12.05;;;4.68;;
42200;SDS011;27869;51.442;7.540;2023-04-24T06:27:27;14.15;;;5.00;;
42200;SDS011;27869;51.442;7.540;2023-04-24T06:29:54;12.93;;;5.10;;
42200;SDS011;27869;51.442;7.540;2023-04-24T06:32:23;12.50;;;4.53;;
42200;SDS011;27869;51.442;7.540;2023-04-24T06:34:50;13.32;;;4.28;;
42200;SDS011;27869;51.442;7.540;2023-04-24T06:37:18;14.35;;;4.32;;
42200;SDS011;27869;51.442;7.540;2023-04-24T06:39:45;12.18;;;3.63;;
42200;SDS011;27869;51.442;7.540;2023-04-24T06:42:12;9.98;;;3.20;;
42200;SDS011;27869;51.442;7.540;2023-04-24T06:44:39;11.20;;;3.45;;
42200;SDS011;27869;51.442;7.540;2023-04-24T06:47:07;9.00;;;2.83;;
42200;SDS011;27869;51.442;7.540;2023-04-24T06:49:36;13.25;;;3.33;;
42200;SDS011;27869;51.442;7.540;2023-04-24T06:52:03;9.77;;;3.40;;
42200;SDS011;27869;51.442;7.540;2023-04-24T06:54:30;10.13;;;3.15;;
42200;SDS011;27869;51.442;7.540;2023-04-24T06:56:57;9.80;;;2.95;;
42200;SDS011;27869;51.442;7.540;2023-04-24T06:59:25;8.93;;;2.63;;
42200;SDS011;27869;51.442;7.540;2023-04-24T07:01:52;7.03;;;2.17;;
42200;SDS011;27869;51.442;7.540;2023-04-24T07:04:19;7.47;;;2.35;;
42200;SDS011;27869;51.442;7.540;2023-04-24T07:06:47;10.82;;;3.15;;
42200;SDS011;27869;51.442;7.540;2023-04-24T07:09:16;9.52;;;3.08;;
42200;SDS011;27869;51.442;7.540;2023-04-24T07:11:43;10.00;;;3.47;;
42200;SDS011;27869;51.442;7.540;2023-04-24T07:14:10;10.30;;;3.03;;
42200;SDS011;27869;51.442;7.540;2023-04-24T07:16:37;10.02;;;3.40;;
42200;SDS011;27869;51.442;7.540;2023-04-24T07:19:04;10.85;;;3.67;;
42200;SDS011;27869;51.442;7.540;2023-04-24T07:21:31;9.80;;;2.92;;
42200;SDS011;27869;51.442;7.540;2023-04-24T07:23:59;9.88;;;3.33;;
42200;SDS011;27869;51.442;7.540;2023-04-24T07:26:28;9.85;;;3.08;;
42200;SDS011;27869;51.442;7.540;2023-04-24T07:28:56;11.23;;;2.65;;
42200;SDS011;27869;51.442;7.540;2023-04-24T07:31:23;9.73;;;2.67;;
42200;SDS011;27869;51.442;7.540;2023-04-24T07:33:50;8.65;;;2.90;;
42200;SDS011;27869;51.442;7.540;2023-04-24T07:36:17;9.02;;;2.83;;
42200;SDS011;27869;51.442;7.540;2023-04-24T07:38:44;11.30;;;3.03;;
42200;SDS011;27869;51.442;7.540;2023-04-24T07:41:13;9.55;;;2.80;;
42200;SDS011;27869;51.442;7.540;2023-04-24T07:43:40;10.35;;;2.90;;
42200;SDS011;27869;51.442;7.540;2023-04-24T07:46:08;8.43;;;2.58;;
42200;SDS011;27869;51.442;7.540;2023-04-24T07:48:35;8.50;;;2.30;;
42200;SDS011;27869;51.442;7.540;2023-04-24T07:51:02;9.27;;;2.88;;
42200;SDS011;27869;51.442;7.540;2023-04-24T07:53:29;9.10;;;2.38;;
42200;SDS011;27869;51.442;7.540;2023-04-24T07:55:56;7.05;;;2.13;;
42200;SDS011;27869;51.442;7.540;2023-04-24T07:58:25;7.25;;;2.20;;
42200;SDS011;27869;51.442;7.540;2023-04-24T08:00:51;6.43;;;1.90;;
42200;SDS011;27869;51.442;7.540;2023-04-24T08:03:18;7.00;;;2.28;;
42200;SDS011;27869;51.442;7.540;2023-04-24T08:05:45;8.00;;;1.90;;
42200;SDS011;27869;51.442;7.540;2023-04-24T08:08:12;6.95;;;1.90;;
42200;SDS011;27869;51.442;7.540;2023-04-24T08:10:39;9.07;;;2.10;;
42200;SDS011;27869;51.442;7.540;2023-04-24T08:13:06;5.88;;;1.50;;
42200;SDS011;27869;51.442;7.540;2023-04-24T08:15:35;6.28;;;2.03;;
42200;SDS011;27869;51.442;7.540;2023-04-24T08:18:01;9.90;;;3.22;;
42200;SDS011;27869;51.442;7.540;2023-04-24T08:20:28;10.13;;;2.85;;
42200;SDS011;27869;51.442;7.540;2023-04-24T08:22:55;11.20;;;3.10;;
42200;SDS011;27869;51.442;7.540;2023-04-24T08:25:22;11.82;;;3.53;;
42200;SDS011;27869;51.442;7.540;2023-04-24T08:27:49;13.05;;;3.80;;
42200;SDS011;27869;51.442;7.540;2023-04-24T08:30:17;10.40;;;2.65;;
42200;SDS011;27869;51.442;7.540;2023-04-24T08:32:45;8.82;;;2.35;;
42200;SDS011;27869;51.442;7.540;2023-04-24T08:35:12;12.82;;;3.30;;
42200;SDS011;27869;51.442;7.540;2023-04-24T08:37:39;10.23;;;3.35;;
42200;SDS011;27869;51.442;7.540;2023-04-24T08:40:09;11.38;;;3.40;;
42200;SDS011;27869;51.442;7.540;2023-04-24T08:42:40;10.07;;;2.45;;
42200;SDS011;27869;51.442;7.540;2023-04-24T08:45:08;9.88;;;2.63;;
42200;SDS011;27869;51.442;7.540;2023-04-24T08:47:37;11.55;;;3.10;;
42200;SDS011;27869;51.442;7.540;2023-04-24T08:50:07;8.80;;;2.35;;
42200;SDS011;27869;51.442;7.540;2023-04-24T08:52:34;8.93;;;2.22;;
42200;SDS011;27869;51.442;7.540;2023-04-24T08:55:02;9.20;;;1.98;;
42200;SDS011;27869;51.442;7.540;2023-04-24T08:57:29;11.68;;;2.88;;
42200;SDS011;27869;51.442;7.540;2023-04-24T08:59:59;12.63;;;4.28;;
42200;SDS011;27869;51.442;7.540;2023-04-24T09:02:27;10.57;;;2.92;;
42200;SDS011;27869;51.442;7.540;2023-04-24T09:04:54;14.88;;;3.25;;
42200;SDS011;27869;51.442;7.540;2023-04-24T09:07:24;11.50;;;3.22;;
42200;SDS011;27869;51.442;7.540;2023-04-24T09:09:53;10.18;;;2.33;;
42200;SDS011;27869;51.442;7.540;2023-04-24T09:12:21;6.65;;;1.80;;
42200;SDS011;27869;51.442;7.540;2023-04-24T09:14:48;12.35;;;3.95;;
42200;SDS011;27869;51.442;7.540;2023-04-24T09:17:16;5.82;;;1.42;;
42200;SDS011;27869;51.442;7.540;2023-04-24T09:19:43;8.35;;;2.47;;
42200;SDS011;27869;51.442;7.540;2023-04-24T09:22:10;8.00;;;2.05;;
42200;SDS011;27869;51.442;7.540;2023-04-24T09:24:39;8.00;;;2.10;;
42200;SDS011;27869;51.442;7.540;2023-04-24T09:27:06;5.63;;;1.85;;
42200;SDS011;27869;51.442;7.540;2023-04-24T09:29:33;7.70;;;2.03;;
42200;SDS011;27869;51.442;7.540;2023-04-24T09:32:06;1.33;;;0.80;;
42200;SDS011;27869;51.442;7.540;2023-04-24T09:34:46;1.67;;;0.70;;
42200;SDS011;27869;51.442;7.540;2023-04-24T09:37:27;30.70;;;10.13;;
42200;SDS011;27869;51.442;7.540;2023-04-24T09:40:08;23.25;;;7.20;;
42200;SDS011;27869;51.442;7.540;2023-04-24T09:42:36;11.77;;;3.13;;
42200;SDS011;27869;51.442;7.540;2023-04-24T09:45:04;15.25;;;4.38;;
42200;SDS011;27869;51.442;7.540;2023-04-24T09:47:35;14.68;;;4.13;;
42200;SDS011;27869;51.442;7.540;2023-04-24T09:50:08;15.40;;;5.65;;
42200;SDS011;27869;51.442;7.540;2023-04-24T09:52:39;4.18;;;1.00;;
42200;SDS011;27869;51.442;7.540;2023-04-24T09:55:11;3.50;;;0.80;;
42200;SDS011;27869;51.442;7.540;2023-04-24T09:57:48;2.08;;;0.82;;
42200;SDS011;27869;51.442;7.540;2023-04-24T10:00:21;1.83;;;0.68;;
42200;SDS011;27869;51.442;7.540;2023-04-24T10:02:55;2.75;;;0.73;;
42200;SDS011;27869;51.442;7.540;2023-04-24T10:05:23;3.72;;;0.85;;
42200;SDS011;27869;51.442;7.540;2023-04-24T10:07:51;2.92;;;0.90;;
42200;SDS011;27869;51.442;7.540;2023-04-24T10:10:23;3.97;;;1.13;;
42200;SDS011;27869;51.442;7.540;2023-04-24T10:12:50;3.42;;;0.90;;
42200;SDS011;27869;51.442;7.540;2023-04-24T10:15:18;4.30;;;1.10;;
42200;SDS011;27869;51.442;7.540;2023-04-24T10:17:46;3.80;;;1.30;;
42200;SDS011;27869;51.442;7.540;2023-04-24T10:20:17;4.00;;;1.15;;
42200;SDS011;27869;51.442;7.540;2023-04-24T10:22:48;4.72;;;1.42;;
42200;SDS011;27869;51.442;7.540;2023-04-24T10:25:16;5.93;;;1.25;;
42200;SDS011;27869;51.442;7.540;2023-04-24T10:27:46;5.25;;;1.50;;
42200;SDS011;27869;51.442;7.540;2023-04-24T10:30:14;5.05;;;1.73;;
42200;SDS011;27869;51.442;7.540;2023-04-24T10:32:42;7.78;;;2.05;;
42200;SDS011;27869;51.442;7.540;2023-04-24T10:35:08;6.20;;;1.25;;
42200;SDS011;27869;51.442;7.540;2023-04-24T10:37:38;4.35;;;1.20;;
42200;SDS011;27869;51.442;7.540;2023-04-24T10:40:09;5.07;;;1.45;;
42200;SDS011;27869;51.442;7.540;2023-04-24T10:42:39;4.78;;;1.20;;
42200;SDS011;27869;51.442;7.540;2023-04-24T10:45:17;3.35;;;1.27;;
42200;SDS011;27869;51.442;7.540;2023-04-24T10:47:52;2.38;;;0.93;;
42200;SDS011;27869;51.442;7.540;2023-04-24T10:50:23;2.25;;;1.05;;
42200;SDS011;27869;51.442;7.540;2023-04-24T10:52:51;5.65;;;1.40;;
42200;SDS011;27869;51.442;7.540;2023-04-24T10:58:09;5.43;;;1.70;;
42200;SDS011;27869;51.442;7.540;2023-04-24T11:00:38;7.32;;;1.70;;
42200;SDS011;27869;51.442;7.540;2023-04-24T11:03:06;5.25;;;1.70;;
42200;SDS011;27869;51.442;7.540;2023-04-24T11:05:55;7.13;;;1.60;;
42200;SDS011;27869;51.442;7.540;2023-04-24T11:08:26;5.88;;;1.77;;
42200;SDS011;27869;51.442;7.540;2023-04-24T11:10:59;5.78;;;1.55;;
42200;SDS011;27869;51.442;7.540;2023-04-24T11:13:31;9.60;;;1.80;;
42200;SDS011;27869;51.442;7.540;2023-04-24T11:16:38;7.55;;;2.08;;
42200;SDS011;27869;51.442;7.540;2023-04-24T11:19:10;7.63;;;2.20;;
42200;SDS011;27869;51.442;7.540;2023-04-24T11:24:26;8.73;;;2.20;;
42200;SDS011;27869;51.442;7.540;2023-04-24T11:26:56;10.20;;;2.22;;
42200;SDS011;27869;51.442;7.540;2023-04-24T11:29:37;10.88;;;2.42;;
42200;SDS011;27869;51.442;7.540;2023-04-24T11:32:17;11.45;;;3.13;;
42200;SDS011;27869;51.442;7.540;2023-04-24T11:34:49;11.02;;;2.40;;
42200;SDS011;27869;51.442;7.540;2023-04-24T11:37:17;11.35;;;2.70;;
42200;SDS011;27869;51.442;7.540;2023-04-24T11:39:44;10.80;;;2.40;;
42200;SDS011;27869;51.442;7.540;2023-04-24T11:42:12;10.43;;;2.55;;
42200;SDS011;27869;51.442;7.540;2023-04-24T11:44:41;14.77;;;3.17;;
42200;SDS011;27869;51.442;7.540;2023-04-24T11:47:12;13.25;;;2.85;;
42200;SDS011;27869;51.442;7.540;2023-04-24T11:49:41;9.90;;;2.45;;
42200;SDS011;27869;51.442;7.540;2023-04-24T11:52:07;12.85;;;2.78;;
42200;SDS011;27869;51.442;7.540;2023-04-24T11:54:35;11.80;;;3.05;;
42200;SDS011;27869;51.442;7.540;2023-04-24T11:57:03;12.35;;;3.33;;
42200;SDS011;27869;51.442;7.540;2023-04-24T12:02:02;12.38;;;2.95;;
42200;SDS011;27869;51.442;7.540;2023-04-24T12:04:37;16.08;;;3.22;;
42200;SDS011;27869;51.442;7.540;2023-04-24T12:07:07;14.68;;;3.08;;
42200;SDS011;27869;51.442;7.540;2023-04-24T12:09:41;13.25;;;3.10;;
42200;SDS011;27869;51.442;7.540;2023-04-24T12:12:08;12.05;;;3.13;;
42200;SDS011;27869;51.442;7.540;2023-04-24T12:14:41;14.98;;;3.45;;
42200;SDS011;27869;51.442;7.540;2023-04-24T12:17:09;13.32;;;3.25;;
42200;SDS011;27869;51.442;7.540;2023-04-24T12:19:36;10.93;;;2.90;;
42200;SDS011;27869;51.442;7.540;2023-04-24T12:22:03;14.98;;;2.90;;
42200;SDS011;27869;51.442;7.540;2023-04-24T12:24:32;12.90;;;2.78;;
42200;SDS011;27869;51.442;7.540;2023-04-24T12:26:59;11.57;;;2.70;;
42200;SDS011;27869;51.442;7.540;2023-04-24T12:29:27;14.35;;;2.90;;
42200;SDS011;27869;51.442;7.540;2023-04-24T12:31:54;11.38;;;2.50;;
42200;SDS011;27869;51.442;7.540;2023-04-24T12:34:21;15.10;;;2.95;;
42200;SDS011;27869;51.442;7.540;2023-04-24T12:36:50;9.20;;;2.50;;
42200;SDS011;27869;51.442;7.540;2023-04-24T12:39:18;10.23;;;2.38;;
42200;SDS011;27869;51.442;7.540;2023-04-24T12:41:55;11.48;;;2.28;;
42200;SDS011;27869;51.442;7.540;2023-04-24T12:44:29;14.30;;;2.53;;
42200;SDS011;27869;51.442;7.540;2023-04-24T12:46:59;10.45;;;2.28;;
42200;SDS011;27869;51.442;7.540;2023-04-24T12:49:26;9.80;;;2.42;;
42200;SDS011;27869;51.442;7.540;2023-04-24T12:51:54;11.18;;;2.50;;
42200;SDS011;27869;51.442;7.540;2023-04-24T12:54:21;10.15;;;2.70;;
42200;SDS011;27869;51.442;7.540;2023-04-24T12:56:48;13.95;;;2.53;;
42200;SDS011;27869;51.442;7.540;2023-04-24T12:59:16;12.00;;;2.45;;
42200;SDS011;27869;51.442;7.540;2023-04-24T13:01:43;11.85;;;2.42;;
42200;SDS011;27869;51.442;7.540;2023-04-24T13:04:10;12.10;;;2.28;;
42200;SDS011;27869;51.442;7.540;2023-04-24T13:06:37;10.77;;;2.45;;
42200;SDS011;27869;51.442;7.540;2023-04-24T13:09:04;14.70;;;2.38;;
42200;SDS011;27869;51.442;7.540;2023-04-24T13:11:31;13.88;;;2.38;;
42200;SDS011;27869;51.442;7.540;2023-04-24T13:13:58;12.57;;;2.72;;
42200;SDS011;27869;51.442;7.540;2023-04-24T13:16:26;10.38;;;2.50;;
42200;SDS011;27869;51.442;7.540;2023-04-24T13:18:53;8.48;;;2.42;;
42200;SDS011;27869;51.442;7.540;2023-04-24T13:21:20;12.20;;;2.47;;
42200;SDS011;27869;51.442;7.540;2023-04-24T13:23:47;11.55;;;2.50;;
42200;SDS011;27869;51.442;7.540;2023-04-24T13:26:14;11.93;;;2.70;;
42200;SDS011;27869;51.442;7.540;2023-04-24T13:28:41;10.52;;;2.40;;
42200;SDS011;27869;51.442;7.540;2023-04-24T13:31:08;8.80;;;2.22;;
42200;SDS011;27869;51.442;7.540;2023-04-24T13:33:36;10.10;;;1.90;;
42200;SDS011;27869;51.442;7.540;2023-04-24T13:36:03;11.45;;;2.25;;
42200;SDS011;27869;51.442;7.540;2023-04-24T13:38:30;7.45;;;2.17;;
42200;SDS011;27869;51.442;7.540;2023-04-24T13:40:57;7.80;;;2.00;;
42200;SDS011;27869;51.442;7.540;2023-04-24T13:43:24;9.77;;;1.98;;
42200;SDS011;27869;51.442;7.540;2023-04-24T13:45:52;12.27;;;1.92;;
42200;SDS011;27869;51.442;7.540;2023-04-24T13:48:18;11.82;;;1.77;;
42200;SDS011;27869;51.442;7.540;2023-04-24T13:50:47;11.32;;;2.45;;
42200;SDS011;27869;51.442;7.540;2023-04-24T13:53:14;6.50;;;1.60;;
42200;SDS011;27869;51.442;7.540;2023-04-24T13:55:41;8.55;;;1.90;;
42200;SDS011;27869;51.442;7.540;2023-04-24T13:58:08;8.45;;;1.95;;
42200;SDS011;27869;51.442;7.540;2023-04-24T14:00:35;6.60;;;1.50;;
42200;SDS011;27869;51.442;7.540;2023-04-24T14:03:04;4.85;;;1.35;;
42200;SDS011;27869;51.442;7.540;2023-04-24T14:05:31;6.55;;;1.60;;
42200;SDS011;27869;51.442;7.540;2023-04-24T14:07:59;5.47;;;1.50;;
42200;SDS011;27869;51.442;7.540;2023-04-24T14:10:26;6.28;;;1.30;;
42200;SDS011;27869;51.442;7.540;2023-04-24T14:12:53;6.28;;;1.65;;
42200;SDS011;27869;51.442;7.540;2023-04-24T14:15:20;8.00;;;1.48;;
42200;SDS011;27869;51.442;7.540;2023-04-24T14:17:47;6.50;;;1.60;;
42200;SDS011;27869;51.442;7.540;2023-04-24T14:20:14;4.97;;;1.50;;
42200;SDS011;27869;51.442;7.540;2023-04-24T14:22:41;5.82;;;1.42;;
42200;SDS011;27869;51.442;7.540;2023-04-24T14:25:10;9.25;;;2.50;;
42200;SDS011;27869;51.442;7.540;2023-04-24T14:27:37;5.68;;;1.42;;
42200;SDS011;27869;51.442;7.540;2023-04-24T14:30:05;5.93;;;1.73;;
42200;SDS011;27869;51.442;7.540;2023-04-24T14:32:33;5.97;;;1.73;;
42200;SDS011;27869;51.442;7.540;2023-04-24T14:35:01;7.10;;;1.40;;
42200;SDS011;27869;51.442;7.540;2023-04-24T14:37:28;4.47;;;1.10;;
42200;SDS011;27869;51.442;7.540;2023-04-24T14:39:55;5.72;;;1.20;;
42200;SDS011;27869;51.442;7.540;2023-04-24T14:42:23;6.80;;;1.20;;
42200;SDS011;27869;51.442;7.540;2023-04-24T14:44:50;7.57;;;1.40;;
42200;SDS011;27869;51.442;7.540;2023-04-24T14:47:17;5.70;;;1.10;;
42200;SDS011;27869;51.442;7.540;2023-04-24T14:49:46;7.97;;;1.30;;
42200;SDS011;27869;51.442;7.540;2023-04-24T14:52:13;7.10;;;1.52;;
42200;SDS011;27869;51.442;7.540;2023-04-24T14:54:41;7.75;;;1.65;;
42200;SDS011;27869;51.442;7.540;2023-04-24T14:57:08;8.85;;;2.00;;